Time;durP1;ratioP1;P1;durP2;ratioP2;P2;SDS_P1;SDS_P2;PMS_P1;PMS_P2;Temp;Humidity;BMP_temperature;BMP_pressure;BME280_temperature;BME280_humidity;BME280_pressure;Samples;Min_cycle;Max_cycle;Signal;HPM_P1;HPM_P2
2022/04/16 00:01:43;;;;;;;1.80;1.70;;;10.30;84.50;;;;;;4161204;28;20062;-76
2022/04/16 00:03:46;;;;;;;4.22;2.03;;;10.30;84.70;;;;;;4164252;28;20054;-76
2022/04/16 00:05:54;;;;;;;3.10;1.92;;;10.30;84.60;;;;;;4182282;28;20123;-76
2022/04/16 00:08:08;;;;;;;2.50;1.77;;;10.30;84.30;;;;;;4161001;28;20058;-76
2022/04/16 00:10:10;;;;;;;1.85;1.75;;;10.20;84.70;;;;;;4179536;28;20216;-78
2022/04/16 00:12:11;;;;;;;2.83;1.95;;;10.20;84.80;;;;;;4171026;28;20057;-78
2022/04/16 00:14:15;;;;;;;1.83;1.73;;;10.10;84.80;;;;;;4167333;28;20121;-77
2022/04/16 00:16:17;;;;;;;4.78;1.48;;;10.00;84.70;;;;;;4159891;28;20814;-77
2022/04/16 00:18:20;;;;;;;1.45;1.35;;;10.00;84.70;;;;;;4165451;28;20702;-77
2022/04/16 00:20:27;;;;;;;1.70;1.60;;;10.00;84.70;;;;;;4153843;28;20056;-77
2022/04/16 00:22:29;;;;;;;1.50;1.40;;;10.00;84.80;;;;;;4165688;28;20065;-77
2022/04/16 00:24:30;;;;;;;2.00;1.70;;;10.00;84.50;;;;;;4155390;28;20113;-77
2022/04/16 00:26:32;;;;;;;2.10;2.00;;;10.00;84.50;;;;;;4158349;28;20784;-77
2022/04/16 00:28:35;;;;;;;1.27;1.17;;;9.90;84.30;;;;;;4170666;28;20747;-77
2022/04/16 00:30:40;;;;;;;3.28;1.40;;;9.80;84.90;;;;;;4163573;28;20085;-76
2022/04/16 00:32:44;;;;;;;1.58;1.45;;;9.80;84.50;;;;;;4156389;28;20066;-77
2022/04/16 00:34:46;;;;;;;2.58;1.52;;;9.90;84.40;;;;;;4165087;28;20061;-77
2022/04/16 00:36:48;;;;;;;1.58;1.48;;;9.90;83.80;;;;;;4158367;28;20624;-77
2022/04/16 00:38:50;;;;;;;2.33;1.27;;;9.80;83.90;;;;;;4166612;28;20066;-77
2022/04/16 00:40:52;;;;;;;1.58;1.48;;;9.80;83.80;;;;;;4180549;28;20049;-78
2022/04/16 00:42:54;;;;;;;1.60;1.50;;;9.80;83.90;;;;;;4197528;28;20260;-78
2022/04/16 00:44:56;;;;;;;1.27;1.17;;;9.80;84.00;;;;;;4152291;28;20057;-77
2022/04/16 00:46:58;;;;;;;1.45;1.35;;;9.60;83.70;;;;;;4183060;28;20113;-78
2022/04/16 00:49:00;;;;;;;1.50;1.40;;;9.60;84.00;;;;;;4166763;28;20058;-77
2022/04/16 00:51:02;;;;;;;1.50;1.40;;;9.50;83.90;;;;;;4160238;28;20066;-77
2022/04/16 00:53:05;;;;;;;1.95;1.85;;;9.50;84.80;;;;;;4162561;28;20095;-77
2022/04/16 00:55:08;;;;;;;1.75;1.35;;;9.50;83.90;;;;;;4164074;28;20152;-77
2022/04/16 00:57:10;;;;;;;1.80;1.10;;;9.50;84.10;;;;;;4180491;28;20062;-78
2022/04/16 00:59:12;;;;;;;1.83;1.45;;;9.40;84.10;;;;;;4165335;28;20073;-77
2022/04/16 01:01:13;;;;;;;1.63;1.27;;;9.40;84.10;;;;;;4160679;28;20876;-77
2022/04/16 01:03:15;;;;;;;3.22;1.50;;;9.30;84.20;;;;;;4165822;28;20065;-77
2022/04/16 01:05:19;;;;;;;1.50;1.40;;;9.30;84.30;;;;;;4167000;28;20057;-77
2022/04/16 01:07:23;;;;;;;2.00;1.90;;;9.30;84.50;;;;;;4164825;28;20069;-77
2022/04/16 01:09:24;;;;;;;1.23;1.13;;;9.20;84.50;;;;;;4177114;28;20093;-75
2022/04/16 01:11:26;;;;;;;2.03;1.60;;;9.20;84.50;;;;;;4167786;28;20061;-77
2022/04/16 01:13:28;;;;;;;1.70;1.60;;;9.20;84.70;;;;;;4159784;28;20058;-78
2022/04/16 01:15:30;;;;;;;1.90;1.70;;;9.20;84.40;;;;;;4164086;28;20241;-77
2022/04/16 01:17:32;;;;;;;1.80;1.70;;;9.20;84.60;;;;;;4163774;28;20905;-76
2022/04/16 01:19:37;;;;;;;1.80;1.70;;;9.10;84.80;;;;;;4175186;28;20711;-78
2022/04/16 01:21:39;;;;;;;2.50;2.33;;;9.10;85.30;;;;;;4174123;28;20154;-77
2022/04/16 01:23:41;;;;;;;1.58;1.48;;;9.00;85.30;;;;;;4169151;28;20180;-78
2022/04/16 01:25:44;;;;;;;1.70;1.60;;;9.00;85.50;;;;;;4172436;28;20226;-78
2022/04/16 01:27:46;;;;;;;3.03;1.58;;;9.00;85.50;;;;;;4168054;28;20148;-78
2022/04/16 01:29:48;;;;;;;2.70;1.80;;;9.10;85.30;;;;;;4194965;28;20111;-79
2022/04/16 01:31:50;;;;;;;2.17;1.83;;;9.10;85.80;;;;;;4171368;28;20149;-77
2022/04/16 01:33:51;;;;;;;1.90;1.80;;;9.00;85.40;;;;;;4165323;28;20057;-79
2022/04/16 01:35:56;;;;;;;3.05;1.60;;;9.00;85.40;;;;;;4158977;28;20054;-78
2022/04/16 01:37:58;;;;;;;1.73;1.63;;;9.00;85.70;;;;;;4162901;28;20206;-78
2022/04/16 01:40:01;;;;;;;1.98;1.88;;;8.90;85.90;;;;;;4171434;28;20247;-79
2022/04/16 01:42:03;;;;;;;2.30;2.10;;;9.00;85.90;;;;;;4156401;28;20176;-78
2022/04/16 01:44:05;;;;;;;1.77;1.67;;;8.90;86.10;;;;;;4159276;28;20046;-78
2022/04/16 01:46:07;;;;;;;1.65;1.55;;;8.90;86.30;;;;;;4172151;28;20172;-78
2022/04/16 01:48:09;;;;;;;1.90;1.80;;;8.80;86.70;;;;;;4177488;28;20135;-78
2022/04/16 01:50:11;;;;;;;1.92;1.83;;;8.80;86.70;;;;;;4167769;28;20125;-78
2022/04/16 01:52:13;;;;;;;2.17;1.40;;;8.80;86.80;;;;;;4166189;28;20075;-78
2022/04/16 01:54:15;;;;;;;1.95;1.45;;;8.80;87.00;;;;;;4162644;28;20947;-78
2022/04/16 01:56:17;;;;;;;2.17;1.98;;;8.80;87.00;;;;;;4173454;28;20065;-76
2022/04/16 01:58:20;;;;;;;1.90;1.80;;;8.80;86.60;;;;;;4157030;28;20763;-77
2022/04/16 02:00:23;;;;;;;1.67;1.58;;;8.90;86.50;;;;;;4156514;28;20089;-75
2022/04/16 02:02:25;;;;;;;1.90;1.70;;;8.90;86.50;;;;;;4161363;28;20137;-77
2022/04/16 02:04:26;;;;;;;1.60;1.50;;;8.90;86.60;;;;;;4158554;28;20097;-77
2022/04/16 02:06:28;;;;;;;2.38;2.20;;;8.90;86.40;;;;;;4157622;28;20072;-77
2022/04/16 02:08:30;;;;;;;1.80;1.70;;;8.80;86.80;;;;;;4164776;28;20062;-76
2022/04/16 02:10:34;;;;;;;3.20;1.63;;;8.70;87.40;;;;;;4182310;28;20054;-76
2022/04/16 02:12:37;;;;;;;2.25;1.92;;;8.80;87.50;;;;;;4173314;28;20058;-77
2022/04/16 02:14:38;;;;;;;1.77;1.67;;;8.80;87.70;;;;;;4168436;28;20773;-77
2022/04/16 02:16:40;;;;;;;2.20;1.73;;;8.80;87.10;;;;;;4167654;28;20061;-77
2022/04/16 02:18:42;;;;;;;2.33;2.13;;;8.90;87.20;;;;;;4168192;28;20054;-77
2022/04/16 02:20:44;;;;;;;1.60;1.50;;;8.80;87.50;;;;;;4167297;28;20057;-76
2022/04/16 02:22:47;;;;;;;1.40;1.27;;;8.90;86.80;;;;;;4168528;28;20058;-76
2022/04/16 02:24:49;;;;;;;2.22;1.70;;;8.90;86.70;;;;;;4167904;28;20184;-75
2022/04/16 02:26:50;;;;;;;1.90;1.70;;;8.90;87.20;;;;;;4179555;28;20069;-76
2022/04/16 02:28:52;;;;;;;1.35;1.25;;;8.90;86.80;;;;;;4178921;28;20108;-76
2022/04/16 02:30:54;;;;;;;2.15;1.60;;;8.80;87.40;;;;;;4166829;28;20183;-77
2022/04/16 02:32:56;;;;;;;1.83;1.58;;;8.70;87.40;;;;;;4177980;28;20901;-77
2022/04/16 02:34:58;;;;;;;2.03;1.40;;;8.70;87.90;;;;;;4167068;28;20085;-77
2022/04/16 02:36:59;;;;;;;1.70;1.60;;;8.70;88.90;;;;;;4173058;28;20861;-78
2022/04/16 02:39:02;;;;;;;1.75;1.65;;;8.70;88.80;;;;;;4157968;28;20057;-77
2022/04/16 02:41:04;;;;;;;3.13;1.67;;;8.70;88.40;;;;;;4173144;28;20085;-77
2022/04/16 02:43:05;;;;;;;1.85;1.63;;;8.60;88.40;;;;;;4177083;28;20077;-77
2022/04/16 02:47:30;;;;;;;1.90;1.70;;;8.60;89.00;;;;;;4154122;28;20062;-76
2022/04/16 02:49:33;;;;;;;3.10;1.80;;;8.60;88.80;;;;;;4171161;28;20084;-76
2022/04/16 02:51:35;;;;;;;2.60;1.27;;;8.50;88.70;;;;;;4166952;28;20077;-76
2022/04/16 02:53:37;;;;;;;1.77;1.67;;;8.50;89.10;;;;;;4163318;28;20268;-76
2022/04/16 02:55:41;;;;;;;3.90;2.17;;;8.50;89.40;;;;;;4178891;28;20909;-76
2022/04/16 02:57:46;;;;;;;2.08;1.92;;;8.40;89.90;;;;;;4180766;28;20056;-76
2022/04/16 02:59:48;;;;;;;2.95;2.35;;;8.40;90.00;;;;;;4157674;28;20767;-76
2022/04/16 03:01:49;;;;;;;1.70;1.60;;;8.40;90.00;;;;;;4163760;28;20058;-76
2022/04/16 03:03:51;;;;;;;2.10;1.90;;;8.40;89.70;;;;;;4170167;28;20069;-76
2022/04/16 03:05:54;;;;;;;2.35;2.05;;;8.50;89.60;;;;;;4172823;28;20069;-76
2022/04/16 03:07:57;;;;;;;2.10;1.90;;;8.50;89.50;;;;;;4175052;28;20172;-77
2022/04/16 03:09:59;;;;;;;1.80;1.70;;;8.50;89.60;;;;;;4166974;28;20686;-77
2022/04/16 03:12:00;;;;;;;2.90;2.05;;;8.40;89.80;;;;;;4161603;28;20159;-77
2022/04/16 03:17:31;;;;;;;4.13;1.90;;;8.50;89.60;;;;;;4172236;28;20066;-77
2022/04/16 03:18:45;;;;;;;2.47;1.80;;;8.50;90.00;;;;;;4178713;28;20108;-77
2022/04/16 03:20:47;;;;;;;1.98;1.60;;;8.40;90.00;;;;;;4167680;28;20068;-77
2022/04/16 03:22:49;;;;;;;2.05;1.95;;;8.40;90.00;;;;;;4162669;28;20148;-77
2022/04/16 03:24:51;;;;;;;1.60;1.50;;;8.40;90.10;;;;;;4174540;28;20164;-77
2022/04/16 03:26:53;;;;;;;1.63;1.52;;;8.40;90.10;;;;;;4170525;28;20745;-76
2022/04/16 03:28:54;;;;;;;1.95;1.85;;;8.30;90.20;;;;;;4179181;28;20089;-77
2022/04/16 03:30:56;;;;;;;2.33;1.88;;;8.30;90.30;;;;;;4177679;28;20057;-77
2022/04/16 03:32:58;;;;;;;3.80;1.95;;;8.30;90.50;;;;;;4153980;28;20081;-77
2022/04/16 03:34:59;;;;;;;1.85;1.75;;;8.30;90.40;;;;;;4170333;28;20153;-77
2022/04/16 03:37:01;;;;;;;2.28;2.08;;;8.30;90.50;;;;;;4168666;28;20053;-77
2022/04/16 03:39:03;;;;;;;1.75;1.65;;;8.30;90.90;;;;;;4169457;28;20885;-77
2022/04/16 03:41:05;;;;;;;2.10;1.90;;;8.30;90.50;;;;;;4176917;28;20117;-77
2022/04/16 03:43:07;;;;;;;2.00;1.85;;;8.30;90.50;;;;;;4171983;28;20053;-77
2022/04/16 03:45:10;;;;;;;1.95;1.77;;;8.30;90.90;;;;;;4168921;28;20108;-77
2022/04/16 03:47:11;;;;;;;2.70;1.88;;;8.30;90.90;;;;;;4186409;28;20057;-77
2022/04/16 03:49:13;;;;;;;2.65;2.15;;;8.40;90.80;;;;;;4161133;28;20096;-77
2022/04/16 03:51:15;;;;;;;1.92;1.83;;;8.40;91.00;;;;;;4163575;28;20061;-77
2022/04/16 03:53:16;;;;;;;2.05;1.90;;;8.40;90.90;;;;;;4165288;28;21054;-77
2022/04/16 04:00:01;;;;;;;2.55;2.33;;;8.40;90.70;;;;;;4167491;28;20054;-77
2022/04/16 04:02:03;;;;;;;4.05;2.00;;;8.30;90.90;;;;;;4169360;28;20791;-76
2022/04/16 04:04:05;;;;;;;1.60;1.50;;;8.40;90.70;;;;;;4172671;28;20058;-76
2022/04/16 04:06:07;;;;;;;2.63;1.70;;;8.40;91.10;;;;;;4163982;28;20093;-76
2022/04/16 04:08:09;;;;;;;2.55;2.35;;;8.50;90.70;;;;;;4165852;28;20217;-76
2022/04/16 04:10:13;;;;;;;2.28;2.08;;;8.50;90.70;;;;;;4182487;28;20082;-76
2022/04/16 04:12:15;;;;;;;2.60;2.40;;;8.40;90.60;;;;;;4166141;28;20058;-76
2022/04/16 04:14:17;;;;;;;1.90;1.70;;;8.40;90.60;;;;;;4163276;28;20114;-76
2022/04/16 04:16:19;;;;;;;2.10;2.00;;;8.40;91.00;;;;;;4166661;28;20089;-76
2022/04/16 04:18:24;;;;;;;2.63;2.42;;;8.40;90.70;;;;;;4167960;28;20084;-77
2022/04/16 04:20:27;;;;;;;4.82;1.73;;;8.40;90.70;;;;;;4162548;28;20915;-76
2022/04/16 04:22:31;;;;;;;2.35;2.15;;;8.50;90.80;;;;;;4165304;28;20058;-76
2022/04/16 04:24:33;;;;;;;2.85;2.05;;;8.50;90.50;;;;;;4165259;28;20868;-76
2022/04/16 04:26:34;;;;;;;2.35;1.83;;;8.60;90.40;;;;;;4166663;28;20085;-76
2022/04/16 04:28:36;;;;;;;2.90;2.70;;;8.60;90.30;;;;;;4165351;28;20168;-76
2022/04/16 04:30:38;;;;;;;2.38;1.98;;;8.50;90.30;;;;;;4165449;28;20824;-76
2022/04/16 04:32:40;;;;;;;2.83;2.50;;;8.60;90.40;;;;;;4161526;28;20189;-76
2022/04/16 04:34:42;;;;;;;3.55;2.35;;;8.60;90.20;;;;;;4169849;28;20060;-75
2022/04/16 04:36:44;;;;;;;2.22;2.05;;;8.50;90.20;;;;;;4158571;28;20078;-76
2022/04/16 04:38:45;;;;;;;2.30;2.10;;;8.40;90.50;;;;;;4169031;28;20062;-76
2022/04/16 04:40:47;;;;;;;4.15;2.25;;;8.40;90.60;;;;;;4168265;28;20062;-75
2022/04/16 04:42:49;;;;;;;2.45;2.20;;;8.40;90.60;;;;;;4176814;28;20102;-76
2022/04/16 04:44:50;;;;;;;2.35;2.13;;;8.30;90.80;;;;;;4169747;28;20061;-76
2022/04/16 04:46:52;;;;;;;2.00;1.85;;;8.30;90.90;;;;;;4180472;28;20049;-76
2022/04/16 04:48:54;;;;;;;2.42;2.22;;;8.20;91.00;;;;;;4156193;28;20186;-76
2022/04/16 04:50:55;;;;;;;2.88;2.10;;;8.20;91.20;;;;;;4161552;28;20168;-76
2022/04/16 04:52:57;;;;;;;3.22;2.45;;;8.30;91.10;;;;;;4164739;28;20863;-76
2022/04/16 04:55:00;;;;;;;5.20;2.53;;;8.30;90.90;;;;;;4172685;28;20045;-76
2022/04/16 04:57:05;;;;;;;3.50;2.08;;;8.40;90.90;;;;;;4175466;28;20773;-76
2022/04/16 04:59:07;;;;;;;3.33;2.63;;;8.40;90.60;;;;;;4187049;28;20042;-76
2022/04/16 05:01:09;;;;;;;2.63;2.40;;;8.50;90.50;;;;;;4178054;28;20144;-77
2022/04/16 05:03:10;;;;;;;3.35;2.60;;;8.50;90.60;;;;;;4175715;28;20062;-76
2022/04/16 05:05:14;;;;;;;2.30;2.10;;;8.50;90.60;;;;;;4156250;28;20936;-76
2022/04/16 05:07:16;;;;;;;3.38;3.05;;;8.50;90.60;;;;;;4171047;28;20057;-76
2022/04/16 05:09:17;;;;;;;2.72;2.53;;;8.40;90.50;;;;;;4158044;28;20142;-76
2022/04/16 05:11:19;;;;;;;2.47;2.28;;;8.40;90.50;;;;;;4165743;28;20886;-76
2022/04/16 05:13:21;;;;;;;3.15;2.53;;;8.30;90.70;;;;;;4163147;28;20058;-76
2022/04/16 05:15:22;;;;;;;2.40;2.20;;;8.40;90.80;;;;;;4179104;28;20084;-76
2022/04/16 05:17:24;;;;;;;2.40;2.20;;;8.40;90.60;;;;;;4166694;28;20057;-76
2022/04/16 05:19:26;;;;;;;2.75;2.50;;;8.40;90.80;;;;;;4167248;28;20176;-76
2022/04/16 05:21:27;;;;;;;2.80;2.60;;;8.40;90.70;;;;;;4170260;28;20056;-76
2022/04/16 05:23:29;;;;;;;3.67;2.03;;;8.50;90.60;;;;;;4179131;28;20161;-76
2022/04/16 05:25:31;;;;;;;2.40;2.20;;;8.50;90.40;;;;;;4166030;28;20058;-76
2022/04/16 05:27:34;;;;;;;2.40;2.08;;;8.50;90.40;;;;;;4165383;28;20172;-76
2022/04/16 05:31:56;;;;;;;3.25;2.65;;;8.50;90.70;;;;;;4160947;28;20156;-76
2022/04/16 05:36:19;;;;;;;2.67;2.47;;;8.60;90.40;;;;;;4170176;28;20065;-76
2022/04/16 05:38:20;;;;;;;2.83;2.60;;;8.80;90.30;;;;;;4187880;28;20623;-76
2022/04/16 05:40:22;;;;;;;2.92;2.70;;;8.90;90.00;;;;;;4164314;28;20054;-76
2022/04/16 05:42:24;;;;;;;3.20;3.00;;;9.00;90.00;;;;;;4164071;28;20049;-76
2022/04/16 05:44:26;;;;;;;2.60;2.40;;;9.00;88.90;;;;;;4170682;28;20104;-76
2022/04/16 05:46:27;;;;;;;2.95;2.65;;;9.10;88.50;;;;;;4199574;28;20089;-76
2022/04/16 05:48:29;;;;;;;3.80;2.30;;;9.00;88.60;;;;;;4181026;28;20054;-76
2022/04/16 05:50:31;;;;;;;5.47;2.78;;;9.10;89.00;;;;;;4189776;28;20057;-76
2022/04/16 05:52:33;;;;;;;2.63;2.42;;;9.00;88.50;;;;;;4170785;28;20054;-76
2022/04/16 05:54:36;;;;;;;2.63;2.42;;;9.10;89.00;;;;;;4175106;28;20108;-76
2022/04/16 05:56:38;;;;;;;3.13;2.70;;;9.20;88.90;;;;;;4174466;28;20062;-76
2022/04/16 05:58:41;;;;;;;2.13;2.03;;;9.20;88.30;;;;;;4165688;28;20058;-78
2022/04/16 06:00:43;;;;;;;2.63;2.42;;;9.10;88.10;;;;;;4167608;28;20069;-77
2022/04/16 06:02:45;;;;;;;2.78;2.58;;;9.20;88.20;;;;;;4167172;28;20050;-75
2022/04/16 06:04:47;;;;;;;2.60;2.40;;;9.10;88.40;;;;;;4159440;28;20058;-76
2022/04/16 06:06:49;;;;;;;2.92;2.72;;;9.00;88.70;;;;;;4155994;28;20777;-76
2022/04/16 06:08:51;;;;;;;2.55;2.35;;;9.00;88.60;;;;;;4173101;28;20061;-76
2022/04/16 06:10:53;;;;;;;3.17;2.90;;;9.10;88.90;;;;;;4171762;28;20077;-76
2022/04/16 06:12:55;;;;;;;3.05;2.85;;;9.00;88.30;;;;;;4178127;28;20100;-77
2022/04/16 06:14:57;;;;;;;3.15;2.80;;;9.10;88.50;;;;;;4164138;28;20066;-78
2022/04/16 06:16:58;;;;;;;3.58;2.90;;;9.10;88.80;;;;;;4174638;28;20635;-75
2022/04/16 06:19:00;;;;;;;2.67;2.47;;;9.20;88.60;;;;;;4166122;28;20176;-76
2022/04/16 06:21:02;;;;;;;3.75;3.45;;;9.20;88.20;;;;;;4167472;28;20807;-76
2022/04/16 06:23:05;;;;;;;3.08;2.88;;;9.30;87.80;;;;;;4167282;28;20592;-77
2022/04/16 06:25:08;;;;;;;2.90;2.70;;;9.30;88.00;;;;;;4166518;28;20180;-76
2022/04/16 06:27:11;;;;;;;3.03;2.60;;;9.30;86.90;;;;;;4155800;28;20058;-76
2022/04/16 06:29:14;;;;;;;3.15;2.55;;;9.10;88.00;;;;;;4166846;28;20152;-76
2022/04/16 06:31:15;;;;;;;4.88;2.95;;;9.20;88.00;;;;;;4168207;28;20903;-77
2022/04/16 06:33:20;;;;;;;5.65;3.55;;;9.30;88.00;;;;;;4166734;28;20053;-76
2022/04/16 06:35:22;;;;;;;3.10;2.85;;;9.30;87.90;;;;;;4168634;28;20170;-76
2022/04/16 06:37:24;;;;;;;2.97;2.75;;;9.30;88.00;;;;;;4168613;28;20164;-76
2022/04/16 06:39:26;;;;;;;2.60;2.40;;;9.30;88.00;;;;;;4171765;28;20042;-77
2022/04/16 06:41:27;;;;;;;2.72;2.53;;;9.40;87.60;;;;;;4166900;28;20050;-77
2022/04/16 06:43:29;;;;;;;3.78;2.58;;;9.40;86.80;;;;;;4178831;28;20735;-76
2022/04/16 06:45:31;;;;;;;2.83;2.63;;;9.50;87.00;;;;;;4168750;28;20068;-77
2022/04/16 06:47:33;;;;;;;3.08;2.88;;;9.50;87.00;;;;;;4170166;28;20133;-77
2022/04/16 06:49:35;;;;;;;2.70;2.38;;;9.60;86.80;;;;;;4162989;28;20101;-77
2022/04/16 06:51:37;;;;;;;2.65;2.45;;;9.50;86.60;;;;;;4173106;28;20169;-76
2022/04/16 06:53:38;;;;;;;3.00;2.70;;;9.60;86.40;;;;;;4168652;28;20057;-78
2022/04/16 06:55:40;;;;;;;3.00;2.70;;;9.60;86.20;;;;;;4171552;28;20069;-76
2022/04/16 06:57:42;;;;;;;3.60;2.90;;;9.50;85.60;;;;;;4154376;28;20054;-75
2022/04/16 06:59:44;;;;;;;3.00;2.70;;;9.50;86.20;;;;;;4166248;28;20097;-74
2022/04/16 07:01:45;;;;;;;3.10;2.70;;;9.50;85.90;;;;;;4181132;28;20064;-75
2022/04/16 07:03:47;;;;;;;4.55;2.53;;;9.40;86.00;;;;;;4175566;28;20740;-74
2022/04/16 07:05:49;;;;;;;3.22;2.60;;;9.50;86.00;;;;;;4183215;28;20213;-75
2022/04/16 07:07:50;;;;;;;3.25;3.05;;;9.50;86.00;;;;;;4172754;28;21338;-75
2022/04/16 07:09:53;;;;;;;2.72;2.53;;;9.50;85.90;;;;;;4170800;28;20093;-74
2022/04/16 07:11:55;;;;;;;3.40;3.20;;;9.40;86.50;;;;;;4156660;28;20157;-73
2022/04/16 07:13:56;;;;;;;3.38;3.10;;;9.30;86.50;;;;;;4159391;28;20061;-73
2022/04/16 07:16:01;;;;;;;3.88;3.58;;;9.40;86.80;;;;;;4172816;28;20773;-73
2022/04/16 07:18:03;;;;;;;3.10;2.90;;;9.50;86.30;;;;;;4168901;28;20175;-73
2022/04/16 07:20:05;;;;;;;3.10;2.80;;;9.60;86.40;;;;;;4182139;28;20152;-73
2022/04/16 07:22:07;;;;;;;3.10;2.90;;;9.60;86.10;;;;;;4161433;28;20076;-73
2022/04/16 07:24:09;;;;;;;3.42;3.13;;;9.60;85.40;;;;;;4163272;28;20054;-73
2022/04/16 07:26:10;;;;;;;4.10;3.67;;;9.70;85.90;;;;;;4160032;28;20054;-76
2022/04/16 07:28:15;;;;;;;3.60;3.30;;;9.60;85.10;;;;;;4165265;28;20064;-73
2022/04/16 07:30:17;;;;;;;3.75;3.35;;;9.70;85.40;;;;;;4168367;28;20053;-72
2022/04/16 07:32:19;;;;;;;4.10;3.22;;;9.80;84.80;;;;;;4159406;28;20161;-75
2022/04/16 07:34:20;;;;;;;3.90;3.03;;;9.80;84.40;;;;;;4158089;28;20057;-73
2022/04/16 07:36:22;;;;;;;5.22;4.05;;;9.80;84.00;;;;;;4174256;28;20819;-74
2022/04/16 07:38:24;;;;;;;4.28;3.15;;;9.80;84.40;;;;;;4169131;28;20105;-77
2022/04/16 07:40:26;;;;;;;3.40;3.10;;;9.60;85.00;;;;;;4174426;28;20057;-75
2022/04/16 07:42:28;;;;;;;5.72;3.45;;;9.50;85.60;;;;;;4167517;28;20165;-77
2022/04/16 07:44:30;;;;;;;7.43;3.97;;;9.40;86.00;;;;;;4168673;28;20061;-75
2022/04/16 07:46:35;;;;;;;3.88;3.58;;;9.40;86.20;;;;;;4188533;28;20857;-75
2022/04/16 07:48:37;;;;;;;5.93;4.43;;;9.40;85.80;;;;;;4168801;28;20141;-74
2022/04/16 07:50:39;;;;;;;4.60;4.20;;;9.30;86.50;;;;;;4179962;28;20063;-75
2022/04/16 07:52:41;;;;;;;4.03;3.67;;;9.40;86.30;;;;;;4165155;28;20072;-73
2022/04/16 07:54:47;;;;;;;4.32;3.88;;;9.50;86.00;;;;;;4166860;28;20058;-72
2022/04/16 07:56:49;;;;;;;4.85;4.00;;;9.50;86.20;;;;;;4164200;28;20058;-75
2022/04/16 07:58:51;;;;;;;4.80;3.80;;;9.50;87.00;;;;;;4166451;28;20050;-75
2022/04/16 08:00:53;;;;;;;6.07;4.38;;;9.60;86.40;;;;;;4177262;28;20104;-75
2022/04/16 08:02:55;;;;;;;5.40;4.90;;;9.60;86.30;;;;;;4182469;28;20853;-77
2022/04/16 08:04:56;;;;;;;5.32;4.80;;;9.60;86.30;;;;;;4166977;28;20065;-76
2022/04/16 08:06:58;;;;;;;5.45;4.95;;;9.50;86.10;;;;;;4163218;28;20848;-76
2022/04/16 08:09:03;;;;;;;5.03;4.40;;;9.60;86.60;;;;;;4172714;28;20164;-76
2022/04/16 08:11:05;;;;;;;4.70;4.30;;;9.70;86.60;;;;;;4165684;28;20049;-75
2022/04/16 08:13:07;;;;;;;6.80;4.50;;;9.80;85.50;;;;;;4177179;28;20145;-74
2022/04/16 08:15:12;;;;;;;5.05;4.45;;;9.80;85.70;;;;;;4165922;28;20873;-76
2022/04/16 08:17:14;;;;;;;5.65;4.15;;;9.90;85.70;;;;;;4176956;28;20865;-75
2022/04/16 08:19:16;;;;;;;3.70;3.40;;;9.90;85.30;;;;;;4178456;28;20706;-76
2022/04/16 08:21:17;;;;;;;5.18;3.90;;;10.10;85.00;;;;;;4164653;28;20100;-74
2022/04/16 08:23:19;;;;;;;5.25;4.75;;;10.10;84.60;;;;;;4156853;28;20062;-75
2022/04/16 08:27:22;;;;;;;6.78;4.80;;;10.10;85.80;;;;;;4157387;28;20054;-76
2022/04/16 08:29:24;;;;;;;6.10;5.50;;;10.30;85.30;;;;;;4162369;28;20050;-76
2022/04/16 08:31:26;;;;;;;6.07;4.65;;;10.40;84.40;;;;;;4161540;28;20061;-75
2022/04/16 08:33:29;;;;;;;6.65;5.25;;;10.30;84.80;;;;;;4159876;28;20058;-75
2022/04/16 08:35:30;;;;;;;7.47;5.00;;;10.30;85.20;;;;;;4181112;28;20052;-76
2022/04/16 08:37:32;;;;;;;5.32;4.82;;;10.30;84.80;;;;;;4163119;28;20089;-75
2022/04/16 08:39:34;;;;;;;5.20;4.63;;;10.40;85.00;;;;;;4167047;28;20060;-75
2022/04/16 08:41:36;;;;;;;7.28;5.20;;;10.60;84.00;;;;;;4166276;28;20058;-77
2022/04/16 08:43:41;;;;;;;6.07;4.78;;;10.60;83.70;;;;;;4162613;28;20061;-76
2022/04/16 08:45:43;;;;;;;5.72;4.68;;;10.60;84.90;;;;;;4170009;28;20876;-77
2022/04/16 08:47:45;;;;;;;5.78;5.05;;;10.60;84.10;;;;;;4167178;28;20197;-77
2022/04/16 08:49:47;;;;;;;6.00;5.40;;;10.70;83.80;;;;;;4159886;28;20064;-76
2022/04/16 08:51:49;;;;;;;5.97;5.35;;;10.80;83.20;;;;;;4161218;28;20156;-77
2022/04/16 08:53:50;;;;;;;5.65;5.15;;;10.80;82.90;;;;;;4164507;28;20052;-76
2022/04/16 08:55:52;;;;;;;6.25;5.65;;;10.70;83.00;;;;;;4161458;28;20056;-76
2022/04/16 08:57:55;;;;;;;6.95;5.30;;;10.60;83.20;;;;;;4160144;28;20084;-75
2022/04/16 08:59:57;;;;;;;6.97;5.55;;;10.60;83.60;;;;;;4153666;28;20057;-75
2022/04/16 09:01:59;;;;;;;7.95;5.50;;;10.80;83.10;;;;;;4162577;28;20857;-76
2022/04/16 09:04:01;;;;;;;6.72;5.38;;;11.00;83.00;;;;;;4164868;28;20186;-77
2022/04/16 09:06:04;;;;;;;6.30;5.47;;;11.00;82.00;;;;;;4158301;28;20152;-76
2022/04/16 09:08:06;;;;;;;6.07;5.00;;;11.00;82.50;;;;;;4167977;28;20068;-76
2022/04/16 09:10:08;;;;;;;6.00;5.25;;;10.90;83.20;;;;;;4162382;28;20058;-76
2022/04/16 09:12:20;;;;;;;5.80;5.30;;;11.00;82.80;;;;;;4171313;28;20123;-76
2022/04/16 09:14:43;;;;;;;7.03;5.07;;;11.00;81.50;;;;;;4164801;28;20112;-77
2022/04/16 09:16:45;;;;;;;5.32;4.82;;;11.00;81.50;;;;;;4157512;28;20674;-76
2022/04/16 09:18:51;;;;;;;6.18;5.15;;;10.90;81.40;;;;;;4163580;28;20096;-75
2022/04/16 09:20:53;;;;;;;5.82;5.30;;;10.80;82.40;;;;;;4177864;28;20107;-74
2022/04/16 09:22:55;;;;;;;5.38;4.88;;;10.90;82.90;;;;;;4165735;28;20065;-76
2022/04/16 09:24:57;;;;;;;5.68;5.10;;;10.90;82.80;;;;;;4165822;28;20085;-75
2022/04/16 09:26:59;;;;;;;7.38;5.38;;;10.80;82.60;;;;;;4175349;28;20053;-75
2022/04/16 09:29:08;;;;;;;5.63;5.13;;;10.90;83.20;;;;;;4162601;28;20057;-76
2022/04/16 09:31:10;;;;;;;5.30;4.85;;;10.80;82.70;;;;;;4152224;28;20058;-76
2022/04/16 09:33:12;;;;;;;7.40;5.85;;;10.80;83.10;;;;;;4156434;28;20058;-76
2022/04/16 09:35:37;;;;;;;7.57;5.80;;;10.70;83.50;;;;;;4161916;28;21283;-76
2022/04/16 09:37:50;;;;;;;8.55;5.90;;;10.70;83.90;;;;;;4151934;28;20058;-76
2022/04/16 09:39:52;;;;;;;7.75;6.40;;;10.70;84.00;;;;;;4153850;28;20062;-76
2022/04/16 09:41:54;;;;;;;10.35;7.65;;;10.60;84.30;;;;;;4158224;28;20801;-76
2022/04/16 09:43:56;;;;;;;6.32;5.72;;;10.60;84.80;;;;;;4176847;28;20807;-77
2022/04/16 09:46:12;;;;;;;8.07;5.88;;;10.40;85.60;;;;;;4159930;28;20062;-76
2022/04/16 09:48:14;;;;;;;9.30;7.15;;;10.30;86.10;;;;;;4158310;28;20047;-76
2022/04/16 09:50:27;;;;;;;7.28;6.28;;;10.40;86.60;;;;;;4164019;28;20048;-75
2022/04/16 09:52:29;;;;;;;8.20;6.40;;;10.40;86.00;;;;;;4163643;28;20900;-76
2022/04/16 09:54:33;;;;;;;8.63;7.40;;;10.30;86.20;;;;;;4152541;28;20145;-78
2022/04/16 09:56:36;;;;;;;9.55;7.13;;;10.30;86.90;;;;;;4149605;28;20769;-77
2022/04/16 09:58:43;;;;;;;11.45;7.13;;;10.00;87.30;;;;;;4160946;28;20057;-78
2022/04/16 10:00:45;;;;;;;7.97;6.63;;;9.90;87.40;;;;;;4158339;28;20085;-77
2022/04/16 10:03:07;;;;;;;6.32;5.72;;;10.10;87.40;;;;;;4160173;28;20061;-77
2022/04/16 10:05:10;;;;;;;6.72;6.00;;;10.10;86.60;;;;;;4166540;28;20894;-77
2022/04/16 10:07:14;;;;;;;7.20;6.13;;;10.20;85.60;;;;;;4166505;28;20058;-77
2022/04/16 10:09:22;;;;;;;7.50;5.93;;;10.20;85.80;;;;;;4164560;28;20065;-77
2022/04/16 10:13:52;;;;;;;;;;;9.70;87.70;;;;;;4160086;28;20064;-77
2022/04/16 10:15:57;;;;;;;7.60;6.20;;;9.70;89.10;;;;;;4159261;28;19975;-77
2022/04/16 10:17:59;;;;;;;7.30;6.60;;;9.80;89.30;;;;;;4165180;28;20056;-74
2022/04/16 10:20:10;;;;;;;8.35;6.78;;;9.90;87.80;;;;;;4156911;28;20072;-74
2022/04/16 10:22:25;;;;;;;;;;;10.10;86.80;;;;;;4166673;28;20076;-75
2022/04/16 10:24:28;;;;;;;7.47;6.55;;;10.30;86.10;;;;;;4159725;28;19929;-75
2022/04/16 10:26:43;;;;;;;7.18;6.20;;;10.50;84.70;;;;;;4161854;28;20085;-77
2022/04/16 10:28:52;;;;;;;6.78;6.07;;;10.70;83.40;;;;;;4162555;28;20058;-76
2022/04/16 10:30:55;;;;;;;6.45;5.63;;;10.80;83.50;;;;;;4165790;28;20065;-74
2022/04/16 10:32:56;;;;;;;7.32;6.15;;;11.00;82.60;;;;;;4166873;28;20050;-74
2022/04/16 10:35:04;;;;;;;7.03;5.20;;;11.40;80.40;;;;;;4164448;28;20806;-75
2022/04/16 10:37:07;;;;;;;8.85;6.35;;;11.60;78.60;;;;;;4175085;28;20173;-75
2022/04/16 10:39:15;;;;;;;6.10;5.50;;;11.50;77.90;;;;;;4163019;28;20173;-75
2022/04/16 10:41:20;;;;;;;6.63;5.30;;;11.60;78.50;;;;;;4158375;28;20161;-76
2022/04/16 10:43:33;;;;;;;8.60;5.63;;;11.80;78.10;;;;;;4161448;28;20156;-76
2022/04/16 10:45:36;;;;;;;6.38;4.55;;;11.80;76.50;;;;;;4166420;28;20104;-75
2022/04/16 10:47:41;;;;;;;9.25;5.80;;;11.90;77.10;;;;;;4164762;28;20116;-76
2022/04/16 10:49:45;;;;;;;5.55;5.05;;;11.90;75.50;;;;;;4159279;28;20098;-76
2022/04/16 10:51:47;;;;;;;5.85;5.13;;;11.60;77.20;;;;;;4164045;28;20062;-76
2022/04/16 10:53:49;;;;;;;6.20;5.28;;;11.50;77.20;;;;;;4174998;28;20791;-75
2022/04/16 10:55:52;;;;;;;6.68;5.85;;;11.50;77.40;;;;;;4162383;28;20108;-75
2022/04/16 10:58:03;;;;;;;7.60;6.13;;;11.40;77.80;;;;;;4168193;28;20904;-76
2022/04/16 11:00:12;;;;;;;7.30;6.35;;;11.40;78.00;;;;;;4160844;28;20054;-75
2022/04/16 11:02:35;;;;;;;6.15;5.55;;;11.20;78.90;;;;;;4156095;28;20688;-75
2022/04/16 11:04:37;;;;;;;7.38;5.22;;;11.20;79.00;;;;;;4167507;28;20061;-76
2022/04/16 11:06:43;;;;;;;6.78;5.65;;;11.40;78.60;;;;;;4158694;28;20046;-75